createdAt,value
2019-06-08T00:00:06.925Z,25.08
2019-06-08T00:01:06.888Z,25.04
2019-06-08T00:02:06.882Z,25.05
2019-06-08T00:03:06.875Z,25.01
2019-06-08T00:04:06.872Z,25.14
2019-06-08T00:05:06.851Z,25.19
2019-06-08T00:06:06.842Z,25.16
2019-06-08T00:07:06.824Z,25.04
2019-06-08T00:08:06.816Z,25.04
2019-06-08T00:09:06.806Z,25.14
2019-06-08T00:10:06.817Z,25.04
2019-06-08T00:11:06.824Z,25.09
2019-06-08T00:12:06.783Z,25.17
2019-06-08T00:13:06.775Z,25.09
2019-06-08T00:14:06.755Z,25.07
2019-06-08T00:15:06.770Z,25.17
2019-06-08T00:16:06.736Z,25.09
2019-06-08T00:17:06.721Z,25.05
2019-06-08T00:18:06.735Z,25.12
2019-06-08T00:19:06.696Z,25.12
2019-06-08T00:20:06.693Z,25.05
2019-06-08T00:21:06.674Z,25.12
2019-06-08T00:22:06.682Z,25.14
2019-06-08T00:23:06.658Z,25.08
2019-06-08T00:24:06.646Z,25.12
2019-06-08T00:25:06.656Z,25.04
2019-06-08T00:26:06.631Z,25.09
2019-06-08T00:27:06.610Z,25.05
2019-06-08T00:28:06.622Z,25.09
2019-06-08T00:29:06.589Z,25.04
2019-06-08T00:30:06.595Z,25.07
2019-06-08T00:31:06.591Z,25.07
2019-06-08T00:32:06.567Z,25.08
2019-06-08T00:33:06.546Z,25.05
2019-06-08T00:34:06.558Z,25.11
2019-06-08T00:35:06.535Z,25.11
2019-06-08T00:36:06.511Z,25.01
2019-06-08T00:37:06.523Z,25.09
2019-06-08T00:38:06.508Z,25.02
2019-06-08T00:39:06.486Z,24.98
2019-06-08T00:40:06.506Z,25.04
2019-06-08T00:41:06.466Z,25.01
2019-06-08T00:42:06.447Z,24.98
2019-06-08T00:43:06.443Z,24.94
2019-06-08T00:44:06.487Z,25.05
2019-06-08T00:45:06.431Z,24.99
2019-06-08T00:46:06.438Z,25.07
2019-06-08T00:47:06.400Z,25.01
2019-06-08T00:48:06.404Z,24.98
2019-06-08T00:49:06.370Z,25.05
2019-06-08T00:50:06.379Z,24.94
2019-06-08T00:51:06.360Z,24.98
2019-06-08T00:52:06.351Z,24.97
2019-06-08T00:53:06.348Z,25.04
2019-06-08T00:54:06.325Z,24.98
2019-06-08T00:55:06.326Z,24.94
2019-06-08T00:56:06.302Z,24.98
2019-06-08T00:57:06.284Z,24.99
2019-06-08T00:58:06.295Z,24.97
2019-06-08T00:59:06.269Z,25.01
2019-06-08T01:00:10.837Z,25.01
2019-06-08T01:01:06.262Z,24.93
2019-06-08T01:02:06.240Z,24.98
2019-06-08T01:03:06.227Z,24.92
2019-06-08T01:04:06.216Z,24.92
2019-06-08T01:05:06.219Z,24.90
2019-06-08T01:06:06.193Z,24.93
2019-06-08T01:07:06.206Z,24.92
2019-06-08T01:08:06.257Z,24.93
2019-06-08T01:09:06.157Z,24.92
2019-06-08T01:10:06.157Z,24.94
2019-06-08T01:11:06.137Z,24.94
2019-06-08T01:12:06.128Z,24.97
2019-06-08T01:13:06.122Z,24.94
2019-06-08T01:14:06.110Z,24.97
2019-06-08T01:15:06.187Z,24.92
2019-06-08T01:16:06.109Z,24.98
2019-06-08T01:17:06.079Z,24.90
2019-06-08T01:18:06.060Z,24.90
2019-06-08T01:19:06.114Z,24.90
2019-06-08T01:20:06.051Z,24.92
2019-06-08T01:21:06.031Z,24.94
2019-06-08T01:22:06.017Z,24.92
2019-06-08T01:23:06.004Z,24.94
2019-06-08T01:24:06.016Z,24.92
2019-06-08T01:25:06.009Z,24.90
2019-06-08T01:26:05.980Z,24.87
2019-06-08T01:27:05.965Z,24.92
2019-06-08T01:28:05.954Z,24.83
2019-06-08T01:29:05.951Z,24.89
2019-06-08T01:30:05.957Z,24.92
2019-06-08T01:31:05.925Z,24.92
2019-06-08T01:32:05.927Z,24.90
2019-06-08T01:33:05.907Z,24.84
2019-06-08T01:34:05.892Z,24.93
2019-06-08T01:35:05.899Z,24.84
2019-06-08T01:36:05.872Z,24.86
2019-06-08T01:37:05.867Z,24.89
2019-06-08T01:38:05.878Z,24.87
2019-06-08T01:39:05.837Z,24.84
2019-06-08T01:40:05.833Z,24.82
2019-06-08T01:41:05.819Z,24.84
2019-06-08T01:42:05.803Z,24.82
2019-06-08T01:43:05.821Z,24.90
2019-06-08T01:44:05.782Z,24.82
2019-06-08T01:45:05.770Z,24.94
2019-06-08T01:46:05.765Z,24.89
2019-06-08T01:47:05.751Z,24.83
2019-06-08T01:48:19.575Z,24.89
2019-06-08T01:49:05.734Z,24.84
2019-06-08T01:50:05.721Z,24.82
2019-06-08T01:51:05.711Z,24.84
2019-06-08T01:52:05.697Z,24.86
2019-06-08T01:53:05.701Z,24.83
2019-06-08T01:54:05.681Z,24.87
2019-06-08T01:55:05.678Z,24.86
2019-06-08T01:56:05.667Z,24.83
2019-06-08T01:57:05.645Z,24.86
2019-06-08T01:58:05.636Z,24.80
2019-06-08T01:59:05.634Z,24.86
2019-06-08T02:00:29.398Z,24.79
2019-06-08T02:01:05.637Z,24.84
2019-06-08T02:02:05.599Z,24.84
2019-06-08T02:03:05.580Z,24.82
2019-06-08T02:04:05.568Z,24.92
2019-06-08T02:05:05.560Z,24.84
2019-06-08T02:06:05.554Z,24.83
2019-06-08T02:07:05.549Z,24.84
2019-06-08T02:08:05.606Z,24.84
2019-06-08T02:09:05.524Z,24.79
2019-06-08T02:10:05.507Z,24.86
2019-06-08T02:11:05.519Z,24.80
2019-06-08T02:12:05.487Z,24.86
2019-06-08T02:13:08.590Z,24.83
2019-06-08T02:14:05.460Z,24.83
2019-06-08T02:15:05.477Z,24.82
2019-06-08T02:16:05.462Z,24.80
2019-06-08T02:17:05.426Z,24.84
2019-06-08T02:18:05.419Z,24.84
2019-06-08T02:19:05.407Z,24.84
2019-06-08T02:20:05.400Z,24.82
2019-06-08T02:21:05.407Z,24.87
2019-06-08T02:22:05.416Z,24.75
2019-06-08T02:23:05.363Z,24.83
2019-06-08T02:24:05.351Z,24.79
2019-06-08T02:25:05.342Z,24.79
2019-06-08T02:26:05.359Z,24.74
2019-06-08T02:27:05.338Z,24.80
2019-06-08T02:28:05.378Z,24.77
2019-06-08T02:29:05.310Z,24.87
2019-06-08T02:30:05.290Z,24.79
2019-06-08T02:31:05.310Z,24.77
2019-06-08T02:32:05.271Z,24.77
2019-06-08T02:33:05.263Z,24.77
2019-06-08T02:34:05.246Z,24.77
2019-06-08T02:35:05.239Z,24.77
2019-06-08T02:36:05.235Z,24.75
2019-06-08T02:37:05.239Z,24.71
2019-06-08T02:38:05.219Z,24.77
2019-06-08T02:39:05.212Z,24.74
2019-06-08T02:40:05.184Z,24.80
2019-06-08T02:41:05.184Z,24.68
2019-06-08T02:42:05.167Z,24.77
2019-06-08T02:43:05.152Z,24.66
2019-06-08T02:44:05.142Z,24.79
2019-06-08T02:45:05.150Z,24.71
2019-06-08T02:46:05.129Z,24.71
2019-06-08T02:47:05.108Z,24.68
2019-06-08T02:48:05.095Z,24.71
2019-06-08T02:49:05.286Z,24.79
2019-06-08T02:50:05.077Z,24.68
2019-06-08T02:51:05.077Z,24.68
2019-06-08T02:52:05.062Z,24.67
2019-06-08T02:53:05.049Z,24.70
2019-06-08T02:54:05.037Z,24.68
2019-06-08T02:55:05.044Z,24.70
2019-06-08T02:56:05.052Z,24.67
2019-06-08T02:57:05.025Z,24.75
2019-06-08T02:58:04.997Z,24.64
2019-06-08T02:59:04.978Z,24.74
2019-06-08T03:00:05.002Z,24.77
2019-06-08T03:01:04.973Z,24.67
2019-06-08T03:02:05.022Z,24.70
2019-06-08T03:03:04.935Z,24.71
2019-06-08T03:04:04.935Z,24.70
2019-06-08T03:05:04.933Z,24.70
2019-06-08T03:06:04.930Z,24.66
2019-06-08T03:07:04.913Z,24.59
2019-06-08T03:08:04.878Z,24.75
2019-06-08T03:09:04.911Z,24.61
2019-06-08T03:10:04.869Z,24.60
2019-06-08T03:11:04.861Z,24.61
2019-06-08T03:12:04.862Z,24.61
2019-06-08T03:13:04.831Z,24.66
2019-06-08T03:14:04.815Z,24.66
2019-06-08T03:15:04.844Z,24.66
2019-06-08T03:16:04.808Z,24.64
2019-06-08T03:17:04.789Z,24.64
2019-06-08T03:18:04.867Z,24.63
2019-06-08T03:19:21.112Z,24.71
2019-06-08T03:20:04.755Z,24.66
2019-06-08T03:21:04.749Z,24.64
2019-06-08T03:22:04.788Z,24.63
2019-06-08T03:23:04.729Z,24.64
2019-06-08T03:24:04.709Z,24.64
2019-06-08T03:25:04.700Z,24.66
2019-06-08T03:26:04.693Z,24.60
2019-06-08T03:27:04.691Z,24.60
2019-06-08T03:28:04.699Z,24.60
2019-06-08T03:29:04.661Z,24.59
2019-06-08T03:30:16.255Z,24.63
2019-06-08T03:31:04.632Z,24.55
2019-06-08T03:32:04.648Z,24.59
2019-06-08T03:33:04.637Z,24.59
2019-06-08T03:34:04.629Z,24.66
2019-06-08T03:35:04.605Z,24.63
2019-06-08T03:36:04.594Z,24.60
2019-06-08T03:37:04.638Z,24.64
2019-06-08T03:38:04.568Z,24.52
2019-06-08T03:39:04.555Z,24.56
2019-06-08T03:40:04.543Z,24.53
2019-06-08T03:41:04.529Z,24.70
2019-06-08T03:42:04.521Z,24.60
2019-06-08T03:43:04.549Z,24.59
2019-06-08T03:44:04.499Z,24.59
2019-06-08T03:45:04.495Z,24.56
2019-06-08T03:46:04.476Z,24.48
2019-06-08T03:47:04.478Z,24.63
2019-06-08T03:48:04.520Z,24.53
2019-06-08T03:49:04.441Z,24.45
2019-06-08T03:50:04.441Z,24.60
2019-06-08T03:51:04.427Z,24.64
2019-06-08T03:52:04.424Z,24.60
2019-06-08T03:53:04.405Z,24.53
2019-06-08T03:54:04.386Z,24.52
2019-06-08T03:55:04.387Z,24.46
2019-06-08T03:56:04.362Z,24.53
2019-06-08T03:57:04.404Z,24.59
2019-06-08T03:58:04.375Z,24.45
2019-06-08T03:59:04.371Z,24.53
2019-06-08T04:00:13.005Z,24.53
2019-06-08T04:01:04.323Z,24.59
2019-06-08T04:02:04.324Z,24.53
2019-06-08T04:03:04.289Z,24.55
2019-06-08T04:04:04.297Z,24.60
2019-06-08T04:05:04.271Z,24.51
2019-06-08T04:06:04.258Z,24.59
2019-06-08T04:07:04.254Z,24.52
2019-06-08T04:08:04.253Z,24.52
2019-06-08T04:09:04.242Z,24.56
2019-06-08T04:10:04.244Z,24.60
2019-06-08T04:11:04.217Z,24.52
2019-06-08T04:12:04.215Z,24.51
2019-06-08T04:13:04.189Z,24.52
2019-06-08T04:14:04.171Z,24.53
2019-06-08T04:15:04.166Z,24.48
2019-06-08T04:16:04.152Z,24.59
2019-06-08T04:17:04.151Z,24.59
2019-06-08T04:18:04.133Z,24.56
2019-06-08T04:19:04.139Z,24.51
2019-06-08T04:20:11.294Z,24.56
2019-06-08T04:21:04.114Z,24.59
2019-06-08T04:22:04.115Z,24.51
2019-06-08T04:23:04.082Z,24.55
2019-06-08T04:24:04.063Z,24.48
2019-06-08T04:25:04.083Z,24.48
2019-06-08T04:26:04.073Z,24.55
2019-06-08T04:27:04.064Z,24.51
2019-06-08T04:28:04.032Z,24.59
2019-06-08T04:29:04.008Z,24.51
2019-06-08T04:30:04.035Z,24.52
2019-06-08T04:31:04.001Z,24.49
2019-06-08T04:32:03.996Z,24.51
2019-06-08T04:33:03.984Z,24.52
2019-06-08T04:34:03.975Z,24.52
2019-06-08T04:35:03.954Z,24.49
2019-06-08T04:36:03.940Z,24.60
2019-06-08T04:37:03.941Z,24.51
2019-06-08T04:38:03.931Z,24.46
2019-06-08T04:39:03.904Z,24.52
2019-06-08T04:40:03.918Z,24.52
2019-06-08T04:41:03.884Z,24.52
2019-06-08T04:42:03.911Z,24.60
2019-06-08T04:43:03.876Z,24.51
2019-06-08T04:44:03.910Z,24.52
2019-06-08T04:45:03.869Z,24.48
2019-06-08T04:46:03.834Z,24.51
2019-06-08T04:47:03.836Z,24.51
2019-06-08T04:48:03.810Z,24.49
2019-06-08T04:49:03.806Z,24.51
2019-06-08T04:50:20.816Z,24.46
2019-06-08T04:51:03.781Z,24.52
2019-06-08T04:52:03.771Z,24.51
2019-06-08T04:53:03.780Z,24.49
2019-06-08T04:54:03.739Z,24.42
2019-06-08T04:55:03.744Z,24.53
2019-06-08T04:56:03.780Z,24.45
2019-06-08T04:57:03.722Z,24.45
2019-06-08T04:58:03.712Z,24.45
2019-06-08T04:59:03.697Z,24.51
2019-06-08T05:00:12.186Z,24.49
2019-06-08T05:01:03.683Z,24.49
2019-06-08T05:02:03.660Z,24.51
2019-06-08T05:03:03.707Z,24.49
2019-06-08T05:04:03.643Z,24.45
2019-06-08T05:05:03.634Z,24.44
2019-06-08T05:06:03.624Z,24.52
2019-06-08T05:07:03.607Z,24.49
2019-06-08T05:08:03.608Z,24.48
2019-06-08T05:09:03.583Z,24.48
2019-06-08T05:10:03.585Z,24.49
2019-06-08T05:11:03.573Z,24.48
2019-06-08T05:12:03.592Z,24.46
2019-06-08T05:13:03.548Z,24.51
2019-06-08T05:14:03.532Z,24.48
2019-06-08T05:15:03.516Z,24.49
2019-06-08T05:16:03.671Z,24.49
2019-06-08T05:17:03.503Z,24.52
2019-06-08T05:18:03.514Z,24.49
2019-06-08T05:19:03.481Z,24.49
2019-06-08T05:20:03.649Z,24.48
2019-06-08T05:21:03.455Z,24.45
2019-06-08T05:22:03.444Z,24.48
2019-06-08T05:23:03.458Z,24.49
2019-06-08T05:24:03.441Z,24.48
2019-06-08T05:25:03.420Z,24.41
2019-06-08T05:26:03.404Z,24.52
2019-06-08T05:27:03.413Z,24.48
2019-06-08T05:28:03.383Z,24.46
2019-06-08T05:29:03.363Z,24.49
2019-06-08T05:30:08.526Z,24.44
2019-06-08T05:31:03.365Z,24.46
2019-06-08T05:32:03.338Z,24.46
2019-06-08T05:33:03.383Z,24.55
2019-06-08T05:34:03.333Z,24.44
2019-06-08T05:35:03.321Z,24.48
2019-06-08T05:36:03.293Z,24.46
2019-06-08T05:37:03.289Z,24.44
2019-06-08T05:38:03.308Z,24.55
2019-06-08T05:39:03.287Z,24.46
2019-06-08T05:40:03.267Z,24.53
2019-06-08T05:41:03.238Z,24.42
2019-06-08T05:42:03.232Z,24.48
2019-06-08T05:43:03.224Z,24.45
2019-06-08T05:44:03.258Z,24.48
2019-06-08T05:45:03.197Z,24.45
2019-06-08T05:46:03.188Z,24.48
2019-06-08T05:47:03.196Z,24.42
2019-06-08T05:48:03.170Z,24.45
2019-06-08T05:49:03.198Z,24.44
2019-06-08T05:50:03.152Z,24.51
2019-06-08T05:51:04.352Z,24.49
2019-06-08T05:52:03.124Z,24.37
2019-06-08T05:53:03.141Z,24.51
2019-06-08T05:54:03.247Z,24.42
2019-06-08T05:55:03.100Z,24.42
2019-06-08T05:56:03.085Z,24.45
2019-06-08T05:57:03.065Z,24.49
2019-06-08T05:58:03.060Z,24.46
2019-06-08T05:59:03.049Z,24.37
2019-06-08T06:00:08.888Z,24.46
2019-06-08T06:01:03.074Z,24.53
2019-06-08T06:02:03.033Z,24.48
2019-06-08T06:03:03.019Z,24.46
2019-06-08T06:04:03.000Z,24.48
2019-06-08T06:05:02.990Z,24.41
2019-06-08T06:06:02.971Z,24.36
2019-06-08T06:07:03.035Z,24.48
2019-06-08T06:08:03.056Z,24.46
2019-06-08T06:09:02.957Z,24.36
2019-06-08T06:10:03.033Z,24.36
2019-06-08T06:11:02.920Z,24.48
2019-06-08T06:12:02.907Z,24.49
2019-06-08T06:13:02.917Z,24.42
2019-06-08T06:14:02.897Z,24.45
2019-06-08T06:15:02.886Z,24.49
2019-06-08T06:16:02.869Z,24.48
2019-06-08T06:17:02.850Z,24.39
2019-06-08T06:18:02.842Z,24.45
2019-06-08T06:19:02.875Z,24.42
2019-06-08T06:20:02.819Z,24.46
2019-06-08T06:21:11.223Z,24.42
2019-06-08T06:22:02.810Z,24.48
2019-06-08T06:23:02.800Z,24.49
2019-06-08T06:24:02.838Z,24.44
2019-06-08T06:25:02.796Z,24.46
2019-06-08T06:26:02.777Z,24.48
2019-06-08T06:27:02.744Z,24.42
2019-06-08T06:28:06.127Z,24.49
2019-06-08T06:29:02.781Z,24.48
2019-06-08T06:30:02.728Z,24.44
2019-06-08T06:31:02.772Z,24.45
2019-06-08T06:32:02.694Z,24.45
2019-06-08T06:33:02.696Z,24.45
2019-06-08T06:34:02.720Z,24.36
2019-06-08T06:35:02.675Z,24.48
2019-06-08T06:36:02.672Z,24.48
2019-06-08T06:37:02.646Z,24.42
2019-06-08T06:38:02.632Z,24.46
2019-06-08T06:39:02.621Z,24.51
2019-06-08T06:40:02.632Z,24.36
2019-06-08T06:41:02.590Z,24.48
2019-06-08T06:42:02.639Z,24.41
2019-06-08T06:43:02.569Z,24.48
2019-06-08T06:44:02.699Z,24.41
2019-06-08T06:45:02.615Z,24.45
2019-06-08T06:46:02.549Z,24.45
2019-06-08T06:47:02.535Z,24.41
2019-06-08T06:48:02.537Z,24.44
2019-06-08T06:49:02.513Z,24.44
2019-06-08T06:50:02.514Z,24.48
2019-06-08T06:51:02.574Z,24.44
2019-06-08T06:52:02.505Z,24.42
2019-06-08T06:53:02.478Z,24.42
2019-06-08T06:54:02.492Z,24.45
2019-06-08T06:55:02.448Z,24.42
2019-06-08T06:56:02.444Z,24.46
2019-06-08T06:57:02.437Z,24.46
2019-06-08T06:58:02.499Z,24.42
2019-06-08T06:59:02.413Z,24.44
2019-06-08T07:00:02.402Z,24.45
2019-06-08T07:01:02.402Z,24.45
2019-06-08T07:02:02.362Z,24.44
2019-06-08T07:03:02.373Z,24.44
2019-06-08T07:04:02.353Z,24.44
2019-06-08T07:05:02.648Z,24.44
2019-06-08T07:06:02.333Z,24.46
2019-06-08T07:07:02.354Z,24.45
2019-06-08T07:08:02.300Z,24.48
2019-06-08T07:09:02.303Z,24.46
2019-06-08T07:10:02.284Z,24.46
2019-06-08T07:11:02.280Z,24.49
2019-06-08T07:12:02.263Z,24.44
2019-06-08T07:13:02.382Z,24.42
2019-06-08T07:14:02.252Z,24.46
2019-06-08T07:15:02.238Z,24.42
2019-06-08T07:16:17.425Z,24.49
2019-06-08T07:17:02.216Z,24.37
2019-06-08T07:18:02.193Z,24.44
2019-06-08T07:19:02.206Z,24.48
2019-06-08T07:20:02.183Z,24.46
2019-06-08T07:21:02.188Z,24.49
2019-06-08T07:22:02.152Z,24.41
2019-06-08T07:23:02.154Z,24.49
2019-06-08T07:24:02.137Z,24.39
2019-06-08T07:25:02.123Z,24.44
2019-06-08T07:26:02.109Z,24.46
2019-06-08T07:27:02.113Z,24.44
2019-06-08T07:28:02.100Z,24.46
2019-06-08T07:29:02.090Z,24.46
2019-06-08T07:30:02.257Z,24.44
2019-06-08T07:31:02.054Z,24.41
2019-06-08T07:32:02.042Z,24.39
2019-06-08T07:33:02.036Z,24.48
2019-06-08T07:34:02.044Z,24.44
2019-06-08T07:35:02.020Z,24.41
2019-06-08T07:36:02.009Z,24.41
2019-06-08T07:37:01.998Z,24.44
2019-06-08T07:38:02.078Z,24.44
2019-06-08T07:39:01.983Z,24.44
2019-06-08T07:40:01.966Z,24.44
2019-06-08T07:41:02.013Z,24.36
2019-06-08T07:42:01.950Z,24.37
2019-06-08T07:43:01.946Z,24.44
2019-06-08T07:44:01.915Z,24.41
2019-06-08T07:45:01.937Z,24.37
2019-06-08T07:46:01.897Z,24.42
2019-06-08T07:47:01.902Z,24.41
2019-06-08T07:48:01.882Z,24.44
2019-06-08T07:49:01.862Z,24.42
2019-06-08T07:50:04.657Z,24.44
2019-06-08T07:51:01.869Z,24.41
2019-06-08T07:52:09.739Z,24.36
2019-06-08T07:53:01.822Z,24.41
2019-06-08T07:54:01.820Z,24.45
2019-06-08T07:55:01.806Z,24.45
2019-06-08T07:56:01.786Z,24.39
2019-06-08T07:57:01.773Z,24.42
2019-06-08T07:58:01.824Z,24.39
2019-06-08T07:59:01.773Z,24.41
2019-06-08T08:00:08.869Z,24.37
2019-06-08T08:01:07.685Z,24.41
2019-06-08T08:02:01.720Z,24.42
2019-06-08T08:03:01.721Z,24.39
2019-06-08T08:04:01.699Z,24.41
2019-06-08T08:05:01.707Z,24.41
2019-06-08T08:06:01.695Z,24.39
2019-06-08T08:07:01.673Z,24.41
2019-06-08T08:08:01.655Z,24.41
2019-06-08T08:09:01.660Z,24.39
2019-06-08T08:10:01.646Z,24.39
2019-06-08T08:11:01.640Z,24.37
2019-06-08T08:12:01.619Z,24.30
2019-06-08T08:13:01.612Z,24.37
2019-06-08T08:14:01.588Z,24.44
2019-06-08T08:15:01.601Z,24.41
2019-06-08T08:16:01.594Z,24.34
2019-06-08T08:17:01.559Z,24.39
2019-06-08T08:18:01.568Z,24.37
2019-06-08T08:19:01.544Z,24.39
2019-06-08T08:20:01.616Z,24.33
2019-06-08T08:21:09.245Z,24.41
2019-06-08T08:22:18.716Z,24.42
2019-06-08T08:23:05.807Z,24.31
2019-06-08T08:24:01.849Z,24.37
2019-06-08T08:25:04.722Z,24.41
2019-06-08T08:26:01.974Z,24.31
2019-06-08T08:27:03.830Z,24.44
2019-06-08T08:28:01.453Z,24.39
2019-06-08T08:29:03.265Z,24.41
2019-06-08T08:30:02.129Z,24.42
2019-06-08T08:31:01.850Z,24.39
2019-06-08T08:32:01.990Z,24.44
2019-06-08T08:33:03.168Z,24.36
2019-06-08T08:34:05.564Z,24.36
2019-06-08T08:35:03.009Z,24.31
2019-06-08T08:36:01.925Z,24.34
2019-06-08T08:37:06.004Z,24.37
2019-06-08T08:38:04.451Z,24.36
2019-06-08T08:39:02.553Z,24.39
2019-06-08T08:40:01.661Z,24.31
2019-06-08T08:41:07.306Z,24.42
2019-06-08T08:42:04.934Z,24.36
2019-06-08T08:43:01.738Z,24.36
2019-06-08T08:44:04.572Z,24.37
2019-06-08T08:45:05.048Z,24.36
2019-06-08T08:46:02.006Z,24.34
2019-06-08T08:47:02.619Z,24.37
2019-06-08T08:48:20.346Z,24.39
2019-06-08T08:49:09.528Z,24.34
2019-06-08T08:50:02.172Z,24.34
2019-06-08T08:51:03.484Z,24.39
2019-06-08T08:52:01.826Z,24.36
2019-06-08T08:53:02.369Z,24.33
2019-06-08T08:54:04.725Z,24.41
2019-06-08T08:55:02.216Z,24.39
2019-06-08T08:56:02.526Z,24.34
2019-06-08T08:57:04.762Z,24.36
2019-06-08T08:58:02.235Z,24.41
2019-06-08T08:59:02.738Z,24.39
2019-06-08T09:00:04.755Z,24.36
2019-06-08T09:01:03.420Z,24.41
2019-06-08T09:02:02.814Z,24.44
2019-06-08T09:03:29.958Z,24.41
2019-06-08T09:04:04.851Z,24.39
2019-06-08T09:05:03.390Z,24.39
2019-06-08T09:06:03.712Z,24.39
2019-06-08T09:07:05.227Z,24.42
2019-06-08T09:08:02.602Z,24.41
2019-06-08T09:09:03.268Z,24.42
2019-06-08T09:10:03.532Z,24.37
2019-06-08T09:11:03.540Z,24.36
2019-06-08T09:12:04.271Z,24.39
2019-06-08T09:13:04.253Z,24.39
2019-06-08T09:14:05.147Z,24.37
2019-06-08T09:15:03.491Z,24.44
2019-06-08T09:16:03.916Z,24.39
2019-06-08T09:17:02.182Z,24.42
2019-06-08T09:18:03.425Z,24.36
2019-06-08T09:19:04.259Z,24.41
2019-06-08T09:20:03.646Z,24.44
2019-06-08T09:21:02.815Z,24.37
2019-06-08T09:22:02.720Z,24.41
2019-06-08T09:23:12.049Z,24.39
2019-06-08T09:24:03.866Z,24.39
2019-06-08T09:25:04.063Z,24.42
2019-06-08T09:26:07.491Z,24.41
2019-06-08T09:27:03.751Z,24.41
2019-06-08T09:28:04.411Z,24.39
2019-06-08T09:29:03.330Z,24.42
2019-06-08T09:30:04.247Z,24.41
2019-06-08T09:31:02.780Z,24.41
2019-06-08T09:32:02.268Z,24.45
2019-06-08T09:33:02.512Z,24.41
2019-06-08T09:34:09.142Z,24.39
2019-06-08T09:35:04.344Z,24.44
2019-06-08T09:36:02.815Z,24.44
2019-06-08T09:37:02.831Z,24.44
2019-06-08T09:38:03.236Z,24.37
2019-06-08T09:39:03.111Z,24.39
2019-06-08T09:40:02.215Z,24.44
2019-06-08T09:41:03.386Z,24.45
2019-06-08T09:42:03.101Z,24.45
2019-06-08T09:43:07.424Z,24.44
2019-06-08T09:44:03.699Z,24.44
2019-06-08T09:45:04.246Z,24.41
2019-06-08T09:46:02.974Z,24.44
2019-06-08T09:47:06.562Z,24.42
2019-06-08T09:48:03.923Z,24.48
2019-06-08T09:49:07.626Z,24.44
2019-06-08T09:50:03.589Z,24.49
2019-06-08T09:51:03.980Z,24.39
2019-06-08T09:52:03.252Z,24.48
2019-06-08T09:53:14.889Z,24.34
2019-06-08T09:54:03.720Z,24.42
2019-06-08T09:55:03.723Z,24.45
2019-06-08T09:56:04.338Z,24.45
2019-06-08T09:57:02.756Z,24.45
2019-06-08T09:58:06.249Z,24.45
2019-06-08T09:59:04.017Z,24.45
2019-06-08T10:00:05.182Z,24.46
2019-06-08T10:01:02.886Z,24.45
2019-06-08T10:02:07.498Z,24.46
2019-06-08T10:03:03.056Z,24.37
2019-06-08T10:04:02.394Z,24.41
2019-06-08T10:05:02.386Z,24.30
2019-06-08T10:06:06.482Z,24.46
2019-06-08T10:07:02.252Z,24.46
2019-06-08T10:08:02.184Z,24.51
2019-06-08T10:09:00.765Z,24.45
2019-06-08T10:10:02.629Z,24.45
2019-06-08T10:11:03.246Z,24.45
2019-06-08T10:12:03.411Z,24.36
2019-06-08T10:13:03.723Z,24.45
2019-06-08T10:14:03.708Z,24.44
2019-06-08T10:15:00.660Z,24.36
2019-06-08T10:16:03.690Z,24.34
2019-06-08T10:17:02.145Z,24.45
2019-06-08T10:18:01.022Z,24.46
2019-06-08T10:19:03.575Z,24.37
2019-06-08T10:20:01.216Z,24.45
2019-06-08T10:21:01.397Z,24.48
2019-06-08T10:22:00.874Z,24.48
2019-06-08T10:23:03.285Z,24.34
2019-06-08T10:24:02.418Z,24.49
2019-06-08T10:25:02.813Z,24.44
2019-06-08T10:26:01.369Z,24.44
2019-06-08T10:27:01.367Z,24.46
2019-06-08T10:28:06.842Z,24.52
2019-06-08T10:29:03.549Z,24.41
2019-06-08T10:30:02.959Z,24.42
2019-06-08T10:31:01.695Z,24.52
2019-06-08T10:32:01.469Z,24.49
2019-06-08T10:33:02.127Z,24.45
2019-06-08T10:34:03.176Z,24.37
2019-06-08T10:35:02.274Z,24.53
2019-06-08T10:36:02.345Z,24.45
2019-06-08T10:37:04.972Z,24.49
2019-06-08T10:38:04.581Z,24.49
2019-06-08T10:39:03.732Z,24.48
2019-06-08T10:40:02.597Z,24.45
2019-06-08T10:41:08.346Z,24.42
2019-06-08T10:42:03.173Z,24.52
2019-06-08T10:43:01.482Z,24.49
2019-06-08T10:44:01.213Z,24.41
2019-06-08T10:45:05.232Z,24.41
2019-06-08T10:46:05.131Z,24.42
2019-06-08T10:47:02.142Z,24.52
2019-06-08T10:48:01.448Z,24.49
2019-06-08T10:49:00.633Z,24.48
2019-06-08T10:50:06.450Z,24.51
2019-06-08T10:51:02.324Z,24.45
2019-06-08T10:52:02.154Z,24.48
2019-06-08T10:53:03.642Z,24.45
2019-06-08T10:54:00.012Z,24.51
2019-06-08T10:55:03.228Z,24.46
2019-06-08T10:56:01.738Z,24.55
2019-06-08T10:57:02.600Z,24.52
2019-06-08T10:58:00.161Z,24.53
2019-06-08T10:59:02.297Z,24.53
2019-06-08T11:00:01.142Z,24.39
2019-06-08T11:01:02.635Z,24.42
2019-06-08T11:02:02.734Z,24.42
2019-06-08T11:03:02.998Z,24.42
2019-06-08T11:04:01.551Z,24.52
2019-06-08T11:05:04.562Z,24.53
2019-06-08T11:06:01.198Z,24.51
2019-06-08T11:07:05.583Z,24.46
2019-06-08T11:08:01.289Z,24.46
2019-06-08T11:09:03.942Z,24.53
2019-06-08T11:10:00.263Z,24.48
2019-06-08T11:11:01.201Z,24.51
2019-06-08T11:12:01.529Z,24.51
2019-06-08T11:13:06.291Z,24.51
2019-06-08T11:14:00.963Z,24.52
2019-06-08T11:15:01.620Z,24.52
2019-06-08T11:16:00.989Z,24.46
2019-06-08T11:17:00.637Z,24.46
2019-06-08T11:18:02.275Z,24.44
2019-06-08T11:19:01.009Z,24.51
2019-06-08T11:20:02.222Z,24.48
2019-06-08T11:21:00.893Z,24.56
2019-06-08T11:22:03.753Z,24.52
2019-06-08T11:23:00.767Z,24.51
2019-06-08T11:24:08.587Z,24.48
2019-06-08T11:25:00.747Z,24.45
2019-06-08T11:26:05.424Z,24.51
2019-06-08T11:27:00.036Z,24.56
2019-06-08T11:27:59.921Z,24.52
2019-06-08T11:29:01.540Z,24.46
2019-06-08T11:29:59.633Z,24.52
2019-06-08T11:30:59.700Z,24.52
2019-06-08T11:31:59.944Z,24.45
2019-06-08T11:32:59.881Z,24.51
2019-06-08T11:34:00.474Z,24.52
2019-06-08T11:34:59.894Z,24.49
2019-06-08T11:36:03.776Z,24.56
2019-06-08T11:37:01.197Z,24.48
2019-06-08T11:38:00.173Z,24.53
2019-06-08T11:39:00.489Z,24.56
2019-06-08T11:39:59.835Z,24.59
2019-06-08T11:41:02.107Z,24.42
2019-06-08T11:42:00.298Z,24.52
2019-06-08T11:43:00.462Z,24.52
2019-06-08T11:44:00.114Z,24.48
2019-06-08T11:45:00.310Z,24.48
2019-06-08T11:46:00.520Z,24.51
2019-06-08T11:47:00.387Z,24.51
2019-06-08T11:48:00.484Z,24.52
2019-06-08T11:49:01.192Z,24.48
2019-06-08T11:50:00.544Z,24.53
2019-06-08T11:51:00.534Z,24.53
2019-06-08T11:52:00.466Z,24.46
2019-06-08T11:53:00.601Z,24.56
2019-06-08T11:53:59.741Z,24.51
2019-06-08T11:55:00.686Z,24.52
2019-06-08T11:56:01.085Z,24.55
2019-06-08T11:56:59.217Z,24.48
2019-06-08T11:57:59.192Z,24.64
2019-06-08T11:58:59.182Z,24.45
2019-06-08T11:59:59.176Z,24.48
2019-06-08T12:01:01.775Z,24.61
2019-06-08T12:01:59.159Z,24.51
2019-06-08T12:02:59.142Z,24.60
2019-06-08T12:03:59.129Z,24.55
2019-06-08T12:04:59.121Z,24.61
2019-06-08T12:05:59.117Z,24.53
2019-06-08T12:06:59.124Z,24.52
2019-06-08T12:07:59.089Z,24.55
2019-06-08T12:09:00.279Z,24.56
2019-06-08T12:09:59.075Z,24.59
2019-06-08T12:11:02.088Z,24.60
2019-06-08T12:11:59.063Z,24.55
2019-06-08T12:12:59.036Z,24.60
2019-06-08T12:13:59.035Z,24.53
2019-06-08T12:14:59.006Z,24.55
2019-06-08T12:15:59.002Z,24.53
2019-06-08T12:17:01.289Z,24.53
2019-06-08T12:17:59.021Z,24.53
2019-06-08T12:18:58.969Z,24.53
2019-06-08T12:19:58.998Z,24.51
2019-06-08T12:21:01.574Z,24.51
2019-06-08T12:21:58.938Z,24.60
2019-06-08T12:22:58.939Z,24.49
2019-06-08T12:23:58.924Z,24.64
2019-06-08T12:24:58.905Z,24.55
2019-06-08T12:25:58.893Z,24.59
2019-06-08T12:27:09.032Z,24.59
2019-06-08T12:27:58.908Z,24.63
2019-06-08T12:29:01.388Z,24.56
2019-06-08T12:29:58.916Z,24.64
2019-06-08T12:31:01.004Z,24.59
2019-06-08T12:32:00.487Z,24.63
2019-06-08T12:32:58.831Z,24.66
2019-06-08T12:33:58.873Z,24.59
2019-06-08T12:35:00.120Z,24.59
2019-06-08T12:35:58.793Z,24.74
2019-06-08T12:36:58.771Z,24.63
2019-06-08T12:37:59.445Z,24.66
2019-06-08T12:38:58.754Z,24.70
2019-06-08T12:40:01.286Z,24.61
2019-06-08T12:40:58.829Z,24.64
2019-06-08T12:41:58.716Z,24.64
2019-06-08T12:42:59.670Z,24.66
2019-06-08T12:43:58.742Z,24.64
2019-06-08T12:44:58.827Z,24.70
2019-06-08T12:45:58.682Z,24.68
2019-06-08T12:46:58.827Z,24.66
2019-06-08T12:47:58.668Z,24.56
2019-06-08T12:48:58.655Z,24.74
2019-06-08T12:49:58.694Z,24.70
2019-06-08T12:50:58.619Z,24.74
2019-06-08T12:51:58.633Z,24.74